createdAt,value
2024-03-14T00:01:32.779Z,14.90
2024-03-14T00:05:55.217Z,15.98
2024-03-14T00:10:18.730Z,15.07
2024-03-14T00:14:46.083Z,15.70
2024-03-14T00:19:08.497Z,16.20
2024-03-14T00:23:32.264Z,17.98
2024-03-14T00:27:54.363Z,17.45
2024-03-14T00:32:16.663Z,17.38
2024-03-14T00:36:39.260Z,17.25
2024-03-14T00:41:01.583Z,17.55
2024-03-14T00:45:23.919Z,17.80
2024-03-14T00:49:46.002Z,18.73
2024-03-14T00:54:08.957Z,21.15
2024-03-14T00:58:30.949Z,18.90
2024-03-14T01:02:56.399Z,21.83
2024-03-14T01:07:20.023Z,21.65
2024-03-14T01:11:42.318Z,23.33
2024-03-14T01:16:06.376Z,21.25
2024-03-14T01:20:28.383Z,22.52
2024-03-14T01:24:50.242Z,23.77
2024-03-14T01:29:12.572Z,28.45
2024-03-14T01:33:34.800Z,26.20
2024-03-14T01:37:57.310Z,26.75
2024-03-14T01:42:19.581Z,27.73
2024-03-14T01:46:41.918Z,28.88
2024-03-14T01:51:04.366Z,26.83
2024-03-14T01:55:26.459Z,26.15
2024-03-14T01:59:51.706Z,24.33
2024-03-14T02:04:23.499Z,23.15
2024-03-14T02:08:46.114Z,23.75
2024-03-14T02:13:08.504Z,26.83
2024-03-14T02:17:31.126Z,26.85
2024-03-14T02:21:53.340Z,26.40
2024-03-14T02:26:15.423Z,29.27
2024-03-14T02:30:37.362Z,28.38
2024-03-14T02:34:59.440Z,28.02
2024-03-14T02:39:24.065Z,26.35
2024-03-14T02:43:46.079Z,33.50
2024-03-14T02:48:08.224Z,27.70
2024-03-14T02:52:30.591Z,29.48
2024-03-14T02:56:52.497Z,28.70
2024-03-14T03:01:14.570Z,25.73
2024-03-14T03:05:37.004Z,28.52
2024-03-14T03:09:59.678Z,30.05
2024-03-14T03:14:22.641Z,29.48
2024-03-14T03:18:45.062Z,28.15
2024-03-14T03:23:10.745Z,27.38
2024-03-14T03:27:33.099Z,27.60
2024-03-14T03:31:56.024Z,25.38
2024-03-14T03:36:18.284Z,27.27
2024-03-14T03:40:41.207Z,26.40
2024-03-14T03:45:04.051Z,26.00
2024-03-14T03:49:29.616Z,23.35
2024-03-14T03:53:53.424Z,26.98
2024-03-14T03:58:15.842Z,26.95
2024-03-14T04:02:37.639Z,24.48
2024-03-14T04:06:59.881Z,24.38
2024-03-14T04:11:22.632Z,25.30
2024-03-14T04:15:48.088Z,23.08
2024-03-14T04:20:15.020Z,24.42
2024-03-14T04:24:37.235Z,28.45
2024-03-14T04:28:59.785Z,24.13
2024-03-14T04:33:22.307Z,27.45
2024-03-14T04:37:46.579Z,27.65
2024-03-14T04:42:09.457Z,25.10
2024-03-14T04:46:33.180Z,26.10
2024-03-14T04:50:55.320Z,25.02
2024-03-14T04:55:19.021Z,27.02
2024-03-14T04:59:41.717Z,27.17
2024-03-14T05:04:10.563Z,25.40
2024-03-14T05:08:32.782Z,22.17
2024-03-14T05:12:55.095Z,24.15
2024-03-14T05:17:20.198Z,26.00
2024-03-14T05:21:45.179Z,24.08
2024-03-14T05:26:08.394Z,23.15
2024-03-14T05:30:30.428Z,25.45
2024-03-14T05:34:52.591Z,24.40
2024-03-14T05:39:16.165Z,24.45
2024-03-14T05:43:38.345Z,23.67
2024-03-14T05:48:16.778Z,24.25
2024-03-14T05:52:41.257Z,25.90
2024-03-14T05:57:04.172Z,24.65
2024-03-14T06:01:27.400Z,23.35
2024-03-14T06:05:54.099Z,24.50
2024-03-14T06:10:16.437Z,24.52
2024-03-14T06:14:40.725Z,21.45
2024-03-14T06:19:03.109Z,24.15
2024-03-14T06:23:25.488Z,26.30
2024-03-14T06:27:50.780Z,23.13
2024-03-14T06:32:12.920Z,23.83
2024-03-14T06:36:35.225Z,27.77
2024-03-14T06:40:57.581Z,24.85
2024-03-14T06:45:20.724Z,26.45
2024-03-14T06:49:43.845Z,23.88
2024-03-14T06:54:06.280Z,21.08
2024-03-14T06:58:28.347Z,25.75
2024-03-14T07:02:53.711Z,23.35
2024-03-14T07:07:18.035Z,21.50
2024-03-14T07:11:42.392Z,21.48
2024-03-14T07:16:11.078Z,19.10
2024-03-14T07:20:38.661Z,20.10
2024-03-14T07:25:00.696Z,18.50
2024-03-14T07:29:23.125Z,16.55
2024-03-14T07:33:46.535Z,19.75
2024-03-14T07:38:09.074Z,19.25
2024-03-14T07:42:32.535Z,17.75
2024-03-14T07:46:54.811Z,18.75
2024-03-14T07:51:18.230Z,17.35
2024-03-14T07:55:41.741Z,17.60
2024-03-14T08:00:10.890Z,14.35
2024-03-14T08:04:34.529Z,14.40
2024-03-14T08:08:56.502Z,12.95
2024-03-14T08:13:23.502Z,11.63
2024-03-14T08:17:46.783Z,12.13
2024-03-14T08:22:09.676Z,10.90
2024-03-14T08:26:32.850Z,12.07
2024-03-14T08:30:55.028Z,7.50
2024-03-14T08:35:17.106Z,8.75
2024-03-14T08:39:39.446Z,9.07
2024-03-14T08:44:06.677Z,8.35
2024-03-14T08:48:29.476Z,9.45
2024-03-14T08:52:51.919Z,12.43
2024-03-14T08:57:14.444Z,7.55
2024-03-14T09:01:37.044Z,10.07
2024-03-14T09:05:59.596Z,8.90
2024-03-14T09:10:26.779Z,7.75
2024-03-14T09:14:49.044Z,10.13
2024-03-14T09:19:10.991Z,6.25
2024-03-14T09:23:33.541Z,5.78
2024-03-14T09:27:55.812Z,7.30
2024-03-14T09:32:17.819Z,8.23
2024-03-14T09:36:40.285Z,4.10
2024-03-14T09:41:09.641Z,3.63
2024-03-14T09:45:40.110Z,6.15
2024-03-14T09:50:07.837Z,4.00
2024-03-14T09:54:29.778Z,5.53
2024-03-14T09:58:53.972Z,4.45
2024-03-14T10:03:16.454Z,3.22
2024-03-14T10:07:43.631Z,5.60
2024-03-14T10:12:11.343Z,3.88
2024-03-14T10:16:33.540Z,6.10
2024-03-14T10:20:55.771Z,5.32
2024-03-14T10:25:25.542Z,3.00
2024-03-14T10:29:51.631Z,4.85
2024-03-14T10:34:16.628Z,5.38
2024-03-14T10:38:42.858Z,5.30
2024-03-14T10:43:07.792Z,5.28
2024-03-14T10:47:30.446Z,6.28
2024-03-14T10:51:53.601Z,6.18
2024-03-14T10:56:17.567Z,7.38
2024-03-14T11:00:40.697Z,6.05
2024-03-14T11:05:02.819Z,5.25
2024-03-14T11:09:27.257Z,7.05
2024-03-14T11:13:52.534Z,6.13
2024-03-14T11:18:18.397Z,5.50
2024-03-14T11:22:44.371Z,6.65
2024-03-14T11:27:07.106Z,6.68
2024-03-14T11:31:48.252Z,5.90
2024-03-14T11:36:12.693Z,4.93
2024-03-14T11:40:35.562Z,8.63
2024-03-14T11:44:58.687Z,4.82
2024-03-14T11:49:29.119Z,8.32
2024-03-14T11:53:52.787Z,7.38
2024-03-14T11:58:18.521Z,5.30
2024-03-14T12:02:41.729Z,7.18
2024-03-14T12:07:09.174Z,5.13
2024-03-14T12:11:33.073Z,6.28
2024-03-14T12:16:06.086Z,8.15
2024-03-14T12:20:29.871Z,5.57
2024-03-14T12:24:57.041Z,2.63
2024-03-14T12:29:21.012Z,6.25
2024-03-14T12:33:43.535Z,5.22
2024-03-14T12:38:06.254Z,5.90
2024-03-14T12:42:28.753Z,5.20
2024-03-14T12:46:51.020Z,5.07
2024-03-14T12:51:14.305Z,5.97
2024-03-14T12:55:36.633Z,8.80
2024-03-14T13:00:01.045Z,8.18
2024-03-14T13:04:23.581Z,8.18
2024-03-14T13:08:46.765Z,6.40
2024-03-14T13:13:18.459Z,7.55
2024-03-14T13:17:47.472Z,7.75
2024-03-14T13:22:14.349Z,4.90
2024-03-14T13:26:36.781Z,7.28
2024-03-14T13:30:58.984Z,6.90
2024-03-14T13:35:23.313Z,6.90
2024-03-14T13:39:46.531Z,7.30
2024-03-14T13:44:08.285Z,7.43
2024-03-14T13:48:34.417Z,7.82
2024-03-14T13:52:57.039Z,10.40
2024-03-14T13:57:20.925Z,9.38
2024-03-14T14:01:48.966Z,10.15
2024-03-14T14:06:14.087Z,8.40
2024-03-14T14:10:36.291Z,8.43
2024-03-14T14:14:59.431Z,7.03
2024-03-14T14:19:22.407Z,9.85
2024-03-14T14:23:44.034Z,9.60
2024-03-14T14:28:08.391Z,7.70
2024-03-14T14:32:30.838Z,9.32
2024-03-14T14:36:53.916Z,9.30
2024-03-14T14:41:20.904Z,9.15
2024-03-14T14:45:43.256Z,9.13
2024-03-14T14:50:07.382Z,9.95
2024-03-14T14:54:29.695Z,12.15
2024-03-14T14:58:51.863Z,10.02
2024-03-14T15:03:14.063Z,10.45
2024-03-14T15:07:39.589Z,12.15
2024-03-14T15:12:02.266Z,8.68
2024-03-14T15:16:26.123Z,11.50
2024-03-14T15:20:48.994Z,9.55
2024-03-14T15:25:14.600Z,11.25
2024-03-14T15:29:40.747Z,9.57
2024-03-14T15:34:04.156Z,9.85
2024-03-14T15:38:28.141Z,9.20
2024-03-14T15:42:50.441Z,9.00
2024-03-14T15:47:13.987Z,9.38
2024-03-14T15:51:38.523Z,12.70
2024-03-14T15:56:00.799Z,9.30
2024-03-14T16:00:28.402Z,10.57
2024-03-14T16:04:50.632Z,9.05
2024-03-14T16:09:12.797Z,10.25
2024-03-14T16:13:36.951Z,9.10
2024-03-14T16:18:00.898Z,7.32
2024-03-14T16:22:24.385Z,6.68
2024-03-14T16:26:46.708Z,9.90
2024-03-14T16:31:09.378Z,8.73
2024-03-14T16:35:34.036Z,8.40
2024-03-14T16:39:56.151Z,7.75
2024-03-14T16:44:18.481Z,9.07
2024-03-14T16:48:42.576Z,7.53
2024-03-14T16:53:11.762Z,8.85
2024-03-14T16:57:35.040Z,7.53
2024-03-14T17:01:57.827Z,7.68
2024-03-14T17:06:19.866Z,7.63
2024-03-14T17:10:42.032Z,7.60
2024-03-14T17:15:04.539Z,7.70
2024-03-14T17:19:26.723Z,8.10
2024-03-14T17:23:49.034Z,7.10
2024-03-14T17:28:11.287Z,9.32
2024-03-14T17:32:33.415Z,8.23
2024-03-14T17:36:55.947Z,12.18
2024-03-14T17:41:18.336Z,8.77
2024-03-14T17:45:40.903Z,8.05
2024-03-14T17:50:04.109Z,9.55
2024-03-14T17:54:26.277Z,9.98
2024-03-14T17:58:48.543Z,9.38
2024-03-14T18:03:11.175Z,9.77
2024-03-14T18:07:33.373Z,13.68
2024-03-14T18:11:58.332Z,14.18
2024-03-14T18:16:20.442Z,12.35
2024-03-14T18:20:44.340Z,11.45
2024-03-14T18:25:06.819Z,11.05
2024-03-14T18:29:28.721Z,12.48
2024-03-14T18:33:51.337Z,11.65
2024-03-14T18:38:13.640Z,9.43
2024-03-14T18:42:35.725Z,12.63
2024-03-14T18:46:58.196Z,10.82
2024-03-14T18:51:20.677Z,17.45
2024-03-14T18:55:44.089Z,14.48
2024-03-14T19:00:14.822Z,14.40
2024-03-14T19:04:37.392Z,14.30
2024-03-14T19:08:59.992Z,11.00
2024-03-14T19:13:22.483Z,12.82
2024-03-14T19:17:44.639Z,11.57
2024-03-14T19:22:07.584Z,13.10
2024-03-14T19:26:31.521Z,12.43
2024-03-14T19:30:53.846Z,14.15
2024-03-14T19:35:16.767Z,15.55
2024-03-14T19:39:38.749Z,14.13
2024-03-14T19:44:03.854Z,14.15
2024-03-14T19:48:26.723Z,14.93
2024-03-14T19:52:49.279Z,15.98
2024-03-14T19:57:11.479Z,19.42
2024-03-14T20:01:33.992Z,18.65
2024-03-14T20:05:56.537Z,23.38
2024-03-14T20:10:25.558Z,21.17
2024-03-14T20:14:47.793Z,19.15
2024-03-14T20:19:10.620Z,19.02
2024-03-14T20:23:32.698Z,21.30
2024-03-14T20:27:55.883Z,23.17
2024-03-14T20:32:19.081Z,22.90
2024-03-14T20:36:41.238Z,24.75
2024-03-14T20:41:06.911Z,23.63
2024-03-14T20:45:31.843Z,22.05
2024-03-14T20:49:54.462Z,26.45
2024-03-14T20:54:16.678Z,21.73
2024-03-14T20:58:39.792Z,23.45
2024-03-14T21:03:03.017Z,24.42
2024-03-14T21:07:25.369Z,23.42
2024-03-14T21:11:51.160Z,26.67
2024-03-14T21:16:18.697Z,26.60
2024-03-14T21:20:41.383Z,23.20
2024-03-14T21:25:08.112Z,23.83
2024-03-14T21:29:30.287Z,22.83
2024-03-14T21:33:52.186Z,23.33
2024-03-14T21:38:15.197Z,23.98
2024-03-14T21:42:39.836Z,22.92
2024-03-14T21:47:01.990Z,22.48
2024-03-14T21:51:24.194Z,24.85
2024-03-14T21:55:46.202Z,23.90
2024-03-14T22:00:10.225Z,23.02
2024-03-14T22:04:32.446Z,24.35
2024-03-14T22:08:54.696Z,24.83
2024-03-14T22:13:19.774Z,25.77
2024-03-14T22:17:45.853Z,23.05
2024-03-14T22:22:09.026Z,23.98
2024-03-14T22:26:31.246Z,23.83
2024-03-14T22:30:59.929Z,21.42
2024-03-14T22:35:26.951Z,26.30
2024-03-14T22:39:49.251Z,22.88
2024-03-14T22:44:12.527Z,21.10
2024-03-14T22:48:34.634Z,20.33
2024-03-14T22:52:58.984Z,22.65
2024-03-14T22:57:22.154Z,17.90
2024-03-14T23:01:44.159Z,19.90
2024-03-14T23:06:12.504Z,19.80
2024-03-14T23:10:34.720Z,19.10
2024-03-14T23:14:56.780Z,20.55
2024-03-14T23:19:19.109Z,20.58
2024-03-14T23:23:41.110Z,19.85
2024-03-14T23:28:04.391Z,21.15
2024-03-14T23:32:26.225Z,18.27
2024-03-14T23:36:49.243Z,17.13
2024-03-14T23:41:11.567Z,18.67
2024-03-14T23:45:35.773Z,18.80
2024-03-14T23:49:58.320Z,17.70
2024-03-14T23:54:20.321Z,15.90
2024-03-14T23:58:42.822Z,17.33
